Time;durP1;ratioP1;P1;durP2;ratioP2;P2;SDS_P1;SDS_P2;PMS_P1;PMS_P2;Temp;Humidity;BMP_temperature;BMP_pressure;BME280_temperature;BME280_humidity;BME280_pressure;Samples;Min_cycle;Max_cycle;Signal;HPM_P1;HPM_P2
2022/05/16 00:00:48;;;;;;;;;;;12.70;99.90;;;;;;5072244;28;19917;-72
2022/05/16 00:03:14;;;;;;;;;;;12.70;99.90;;;;;;5072006;28;20284;-70
2022/05/16 00:05:40;;;;;;;;;;;12.60;99.90;;;;;;5071806;28;19956;-69
2022/05/16 00:08:06;;;;;;;;;;;12.50;99.90;;;;;;5071959;28;19908;-70
2022/05/16 00:10:31;;;;;;;;;;;12.50;99.90;;;;;;5071743;28;20305;-70
2022/05/16 00:12:59;;;;;;;;;;;12.40;99.90;;;;;;5071871;28;19959;-70
2022/05/16 00:15:25;;;;;;;;;;;12.30;99.90;;;;;;5071866;28;19917;-70
2022/05/16 00:17:51;;;;;;;;;;;12.30;99.90;;;;;;5072001;28;19908;-70
2022/05/16 00:20:17;;;;;;;;;;;12.30;99.90;;;;;;5071858;28;20343;-69
2022/05/16 00:22:42;;;;;;;;;;;12.20;99.90;;;;;;5071761;28;19920;-70
2022/05/16 00:25:09;;;;;;;;;;;12.20;99.90;;;;;;5071879;28;19966;-70
2022/05/16 00:27:34;;;;;;;;;;;12.20;99.90;;;;;;5071561;28;19913;-70
2022/05/16 00:30:05;;;;;;;;;;;12.10;99.90;;;;;;5071602;28;19916;-71
2022/05/16 00:32:30;;;;;;;;;;;12.10;99.90;;;;;;5071579;28;19920;-71
2022/05/16 00:34:56;;;;;;;;;;;12.10;99.90;;;;;;5071799;28;20062;-71
2022/05/16 00:37:22;;;;;;;;;;;12.00;99.90;;;;;;5071530;28;19912;-71
2022/05/16 00:39:47;;;;;;;;;;;12.10;99.90;;;;;;5071753;28;19916;-71
2022/05/16 00:42:13;;;;;;;;;;;12.00;99.90;;;;;;5071459;28;20365;-70
2022/05/16 00:44:38;;;;;;;;;;;12.00;99.90;;;;;;5071543;28;19946;-71
2022/05/16 00:47:05;;;;;;;;;;;12.00;99.90;;;;;;5071388;28;19921;-71
2022/05/16 00:49:33;;;;;;;;;;;12.00;99.90;;;;;;5071558;28;19962;-71
2022/05/16 00:52:11;;;;;;;;;;;12.00;99.90;;;;;;5071342;28;19920;-71
2022/05/16 00:54:38;;;;;;;;;;;11.90;99.90;;;;;;5071453;28;20344;-71
2022/05/16 00:57:06;;;;;;;;;;;11.90;99.90;;;;;;5071640;28;19916;-71
2022/05/16 00:59:36;;;;;;;;;;;11.90;99.90;;;;;;5071455;28;19936;-71
2022/05/16 01:04:57;;;;;;;;;;;11.90;99.90;;;;;;5057655;28;19966;-70
2022/05/16 01:07:30;;;;;;;;;;;11.90;99.90;;;;;;5071587;28;19924;-71
2022/05/16 01:09:56;;;;;;;;;;;11.90;99.90;;;;;;5071502;28;19912;-71
2022/05/16 01:12:30;;;;;;;;;;;11.90;99.90;;;;;;5071467;28;19923;-71
2022/05/16 01:14:56;;;;;;;;;;;11.80;99.90;;;;;;5086649;28;20371;-71
2022/05/16 01:17:22;;;;;;;;;;;11.70;99.90;;;;;;5071711;28;20274;-71
2022/05/16 01:19:47;;;;;;;;;;;11.70;99.90;;;;;;5071461;28;19912;-70
2022/05/16 01:22:22;;;;;;;;;;;11.70;99.90;;;;;;5070947;28;19929;-70
2022/05/16 01:24:48;;;;;;;;;;;11.60;99.90;;;;;;5071242;28;19936;-71
2022/05/16 01:27:14;;;;;;;;;;;11.60;99.90;;;;;;5071054;28;20398;-71
2022/05/16 01:29:39;;;;;;;;;;;11.50;99.90;;;;;;5071282;28;19920;-70
2022/05/16 01:32:05;;;;;;;;;;;11.50;99.90;;;;;;5070927;28;20364;-71
2022/05/16 01:34:30;;;;;;;;;;;11.50;99.90;;;;;;5070708;28;19924;-70
2022/05/16 01:36:56;;;;;;;;;;;12.60;99.90;;;;;;5071325;28;19966;-71
2022/05/16 01:39:21;;;;;;;;;;;11.50;99.90;;;;;;5070976;28;19917;-69
2022/05/16 01:41:47;;;;;;;;;;;11.50;99.90;;;;;;5071043;28;19956;-71
2022/05/16 01:44:12;;;;;;;;;;;11.40;99.90;;;;;;5070883;28;19916;-71
2022/05/16 01:46:40;;;;;;;;;;;11.40;99.90;;;;;;5070883;28;19912;-71
2022/05/16 01:49:06;;;;;;;;;;;11.40;99.90;;;;;;5071030;28;19962;-71
2022/05/16 01:51:32;;;;;;;;;;;11.40;99.90;;;;;;5070753;28;19966;-71
2022/05/16 01:53:57;;;;;;;;;;;11.40;99.90;;;;;;5070698;28;20423;-70
2022/05/16 01:56:23;;;;;;;;;;;11.40;99.90;;;;;;5070953;28;19951;-71
2022/05/16 01:58:49;;;;;;;;;;;11.40;99.90;;;;;;5070896;28;19913;-71
2022/05/16 02:01:15;;;;;;;;;;;11.40;99.90;;;;;;5070668;28;19912;-71
2022/05/16 02:03:42;;;;;;;;;;;11.40;99.90;;;;;;5070574;28;20015;-71
2022/05/16 02:06:07;;;;;;;;;;;11.30;99.90;;;;;;5072606;28;20418;-71
2022/05/16 02:08:33;;;;;;;;;;;11.30;99.90;;;;;;5074536;28;19921;-71
2022/05/16 02:10:59;;;;;;;;;;;11.30;99.90;;;;;;5074424;28;19913;-71
2022/05/16 02:13:25;;;;;;;;;;;11.30;99.90;;;;;;5074182;28;19919;-71
2022/05/16 02:15:50;;;;;;;;;;;11.30;99.90;;;;;;5074132;28;20284;-71
2022/05/16 02:18:17;;;;;;;;;;;11.30;99.90;;;;;;5074064;28;19908;-71
2022/05/16 02:20:43;;;;;;;;;;;11.30;99.90;;;;;;5073802;28;19928;-70
2022/05/16 02:25:56;;;;;;;;;;;11.30;99.90;;;;;;5073376;28;20128;-70
2022/05/16 02:28:22;;;;;;;;;;;11.20;99.90;;;;;;5073851;28;19919;-71
2022/05/16 02:30:48;;;;;;;;;;;11.20;99.90;;;;;;5073743;28;20007;-71
2022/05/16 02:33:15;;;;;;;;;;;11.20;99.90;;;;;;5073930;28;19944;-71
2022/05/16 02:35:41;;;;;;;;;;;11.20;99.90;;;;;;5073705;28;19940;-71
2022/05/16 02:38:07;;;;;;;;;;;11.20;99.90;;;;;;5073804;28;19914;-71
2022/05/16 02:40:33;;;;;;;;;;;11.20;99.90;;;;;;5073589;28;19935;-71
2022/05/16 02:42:59;;;;;;;;;;;11.20;99.90;;;;;;5073722;28;19912;-71
2022/05/16 02:45:25;;;;;;;;;;;11.20;99.90;;;;;;5073481;28;19923;-71
2022/05/16 02:47:51;;;;;;;;;;;11.20;99.90;;;;;;5073673;28;19912;-71
2022/05/16 02:50:17;;;;;;;;;;;11.10;99.90;;;;;;5073835;28;19913;-71
2022/05/16 02:52:43;;;;;;;;;;;11.10;99.90;;;;;;5073434;28;20007;-71
2022/05/16 02:55:09;;;;;;;;;;;11.10;99.90;;;;;;5073706;28;19959;-71
2022/05/16 02:57:34;;;;;;;;;;;12.20;99.90;;;;;;5073517;28;19969;-71
2022/05/16 03:00:00;;;;;;;;;;;11.10;99.90;;;;;;5073548;28;19912;-71
2022/05/16 03:02:26;;;;;;;;;;;11.10;99.90;;;;;;5073382;28;20359;-71
2022/05/16 03:04:51;;;;;;;;;;;11.10;99.90;;;;;;5073481;28;20268;-70
2022/05/16 03:07:17;;;;;;;;;;;11.10;99.90;;;;;;5088788;28;19924;-70
2022/05/16 03:09:43;;;;;;;;;;;11.00;99.90;;;;;;5088806;28;19916;-70
2022/05/16 03:12:08;;;;;;;;;;;11.00;99.90;;;;;;5073175;28;19917;-70
2022/05/16 03:14:35;;;;;;;;;;;11.00;99.90;;;;;;5073319;28;19916;-70
2022/05/16 03:17:02;;;;;;;;;;;11.00;99.90;;;;;;5072299;28;20356;-70
2022/05/16 03:19:27;;;;;;;;;;;11.10;99.90;;;;;;5088594;28;19920;-70
2022/05/16 03:21:53;;;;;;;;;;;11.10;99.90;;;;;;5088233;28;20372;-70
2022/05/16 03:24:18;;;;;;;;;;;11.10;99.90;;;;;;5073007;28;19962;-70
2022/05/16 03:26:44;;;;;;;;;;;11.20;99.90;;;;;;5072720;28;20410;-70
2022/05/16 03:29:13;;;;;;;;;;;11.20;99.90;;;;;;5072830;28;19974;-70
2022/05/16 03:31:39;;;;;;;;;;;11.30;99.90;;;;;;5072494;28;20003;-70
2022/05/16 03:34:05;;;;;;;;;;;11.40;99.90;;;;;;5072819;28;19908;-70
2022/05/16 03:36:31;;;;;;;;;;;11.40;99.90;;;;;;5088066;28;19916;-70
2022/05/16 03:41:41;;;;;;;;;;;11.60;99.90;;;;;;5072860;28;20019;-70
2022/05/16 03:44:06;;;;;;;;;;;11.60;99.90;;;;;;5072504;28;19909;-70
2022/05/16 03:46:32;;;;;;;;;;;11.70;99.90;;;;;;5072144;28;19970;-70
2022/05/16 03:48:57;;;;;;;;;;;11.80;99.90;;;;;;5072488;28;19915;-71
2022/05/16 03:51:23;;;;;;;;;;;11.80;99.90;;;;;;5087778;28;19924;-70
2022/05/16 03:53:48;;;;;;;;;;;11.90;99.90;;;;;;5087727;28;19959;-69
2022/05/16 03:56:19;;;;;;;;;;;11.90;99.90;;;;;;5072144;28;19963;-70
2022/05/16 03:58:44;;;;;;;;;;;11.90;99.90;;;;;;5072258;28;19915;-70
2022/05/16 04:01:11;;;;;;;;;;;11.90;99.90;;;;;;5071907;28;19921;-70
2022/05/16 04:03:37;;;;;;;;;;;11.90;99.90;;;;;;5072253;28;19908;-70
2022/05/16 04:06:03;;;;;;;;;;;11.90;99.90;;;;;;5071878;28;20011;-70
2022/05/16 04:08:28;;;;;;;;;;;12.00;99.90;;;;;;5072010;28;20367;-70
2022/05/16 04:10:55;;;;;;;;;;;12.00;99.90;;;;;;5072033;28;19952;-70
2022/05/16 04:13:20;;;;;;;;;;;12.10;99.90;;;;;;5071770;28;20353;-70
2022/05/16 04:15:45;;;;;;;;;;;12.10;99.90;;;;;;5071790;28;19920;-70
2022/05/16 04:18:11;;;;;;;;;;;12.10;99.90;;;;;;5071878;28;19919;-70
2022/05/16 04:20:36;;;;;;;;;;;13.40;99.90;;;;;;5071498;28;19981;-69
2022/05/16 04:23:02;;;;;;;;;;;12.20;99.90;;;;;;5070485;28;20254;-71
2022/05/16 04:25:28;;;;;;;;;;;12.10;99.90;;;;;;5071884;28;19919;-70
2022/05/16 04:27:54;;;;;;;;;;;12.20;99.90;;;;;;5071570;28;20351;-71
2022/05/16 04:30:19;;;;;;;;;;;12.20;99.90;;;;;;5087092;28;20280;-70
2022/05/16 04:32:45;;;;;;;;;;;12.30;99.90;;;;;;5071820;28;19971;-71
2022/05/16 04:35:10;;;;;;;;;;;12.50;99.90;;;;;;5071868;28;19912;-71
2022/05/16 04:37:36;;;;;;;;;;;12.50;99.90;;;;;;5071938;28;19951;-71
2022/05/16 04:40:03;;;;;;;;;;;12.70;99.90;;;;;;5086946;28;20432;-71
2022/05/16 04:42:41;;;;;;;;;;;12.90;99.90;;;;;;5071793;28;19913;-71
2022/05/16 04:45:12;;;;;;;;;;;13.40;99.90;;;;;;5071838;28;19920;-71
2022/05/16 04:47:37;;;;;;;;;;;13.20;99.90;;;;;;5071691;28;20317;-71
2022/05/16 04:50:04;;;;;;;;;;;13.30;99.90;;;;;;5071382;28;19960;-70
2022/05/16 04:52:29;;;;;;;;;;;13.50;99.90;;;;;;5071996;28;20447;-71
2022/05/16 04:54:55;;;;;;;;;;;13.60;99.90;;;;;;5071552;28;19912;-71
2022/05/16 04:57:20;;;;;;;;;;;13.60;99.90;;;;;;5071319;28;20404;-71
2022/05/16 04:59:47;;;;;;;;;;;13.70;99.90;;;;;;5071514;28;19912;-71
2022/05/16 05:02:13;;;;;;;;;;;13.80;99.90;;;;;;5071431;28;20488;-71
2022/05/16 05:04:39;;;;;;;;;;;13.90;99.90;;;;;;5071396;28;19924;-71
2022/05/16 05:07:04;;;;;;;;;;;14.00;99.90;;;;;;5071247;28;20408;-71
2022/05/16 05:09:30;;;;;;;;;;;14.10;99.90;;;;;;5071115;28;19916;-71
2022/05/16 05:14:41;;;;;;;;;;;14.40;99.90;;;;;;5071461;28;19920;-71
2022/05/16 05:17:08;;;;;;;;;;;14.50;99.90;;;;;;5071127;28;19912;-71
2022/05/16 05:19:35;;;;;;;;;;;14.60;99.90;;;;;;5071084;28;19916;-71
2022/05/16 05:22:00;;;;;;;;;;;14.70;99.90;;;;;;5070909;28;20424;-71
2022/05/16 05:24:26;;;;;;;;;;;14.70;99.90;;;;;;5071299;28;19917;-71
2022/05/16 05:26:52;;;;;;;;;;;14.60;99.90;;;;;;5071201;28;19912;-70
2022/05/16 05:29:19;;;;;;;;;;;14.50;99.90;;;;;;5071018;28;19919;-70
2022/05/16 05:31:45;;;;;;;;;;;14.60;99.90;;;;;;5071059;28;20377;-71
2022/05/16 05:34:11;;;;;;;;;;;14.50;99.90;;;;;;5071170;28;19913;-70
2022/05/16 05:36:38;;;;;;;;;;;14.60;99.90;;;;;;5071070;28;20007;-71
2022/05/16 05:39:04;;;;;;;;;;;14.30;99.90;;;;;;5070723;28;19916;-71
2022/05/16 05:41:30;;;;;;;;;;;14.30;99.90;;;;;;5088869;28;19912;-71
2022/05/16 05:43:56;;;;;;;;;;;14.30;99.90;;;;;;5074818;28;20472;-71
2022/05/16 05:46:21;;;;;;;;;;;14.30;99.90;;;;;;5074911;28;19919;-71
2022/05/16 05:48:47;;;;;;;;;;;14.30;99.90;;;;;;5074819;28;20276;-71
2022/05/16 05:51:13;;;;;;;;;;;14.30;99.90;;;;;;5074717;28;19913;-71
2022/05/16 05:53:41;;;;;;;;;;;14.40;99.90;;;;;;5074689;28;20003;-71
2022/05/16 05:56:07;;;;;;;;;;;14.50;99.90;;;;;;5074508;28;19924;-71
2022/05/16 05:58:33;;;;;;;;;;;14.50;99.90;;;;;;5074562;28;19916;-71
2022/05/16 06:00:59;;;;;;;;;;;14.60;99.90;;;;;;5074345;28;20265;-71
2022/05/16 06:03:25;;;;;;;;;;;14.70;99.90;;;;;;5074165;28;19962;-71
2022/05/16 06:05:50;;;;;;;;;;;14.70;99.40;;;;;;5089726;28;19913;-71
2022/05/16 06:08:16;;;;;;;;;;;14.70;99.90;;;;;;5074062;28;19916;-70
2022/05/16 06:10:41;;;;;;;;;;;14.80;98.70;;;;;;5074209;28;19920;-71
2022/05/16 06:13:07;;;;;;;;;;;14.90;98.50;;;;;;5073934;28;19912;-71
2022/05/16 06:15:33;;;;;;;;;;;15.10;98.20;;;;;;5074184;28;19912;-70
2022/05/16 06:17:58;;;;;;;;;;;15.10;98.60;;;;;;5074046;28;19912;-71
2022/05/16 06:20:23;;;;;;;;;;;15.20;98.10;;;;;;5074153;28;20276;-71
2022/05/16 06:22:49;;;;;;;;;;;15.20;97.90;;;;;;5073992;28;20007;-70
2022/05/16 06:25:31;;;;;;;;;;;15.30;98.30;;;;;;5074173;28;19950;-71
2022/05/16 06:28:07;;;;;;;;;;;15.40;98.20;;;;;;5073867;28;19912;-70
2022/05/16 06:30:33;;;;;;;;;;;15.30;98.00;;;;;;5073667;28;19917;-71
2022/05/16 06:32:59;;;;;;;;;;;15.50;98.00;;;;;;5073856;28;20330;-71
2022/05/16 06:35:25;;;;;;;;;;;15.50;98.00;;;;;;5073657;28;19924;-71
2022/05/16 06:37:50;;;;;;;;;;;15.60;98.20;;;;;;5073717;28;20274;-71
2022/05/16 06:40:17;;;;;;;;;;;15.80;98.50;;;;;;5074145;28;19916;-71
2022/05/16 06:42:43;;;;;;;;;;;16.00;98.20;;;;;;5073789;28;20011;-70
2022/05/16 06:45:09;;;;;;;;;;;16.00;97.30;;;;;;5055542;28;20003;-71
2022/05/16 06:47:35;;;;;;;;;;;16.00;96.90;;;;;;5073632;28;20372;-71
2022/05/16 06:50:00;;;;;;;;;;;16.00;97.60;;;;;;5088915;28;19989;-71
2022/05/16 06:52:26;;;;;;;;;;;16.10;98.00;;;;;;5055187;28;20395;-71
2022/05/16 06:54:52;;;;;;;;;;;16.30;98.60;;;;;;5073607;28;19920;-71
2022/05/16 06:57:17;;;;;;;;;;;16.70;97.90;;;;;;5088845;28;19917;-70
2022/05/16 06:59:43;;;;;;;;;;;17.10;94.80;;;;;;5073707;28;19939;-70
2022/05/16 07:02:09;;;;;;;;;;;16.90;94.50;;;;;;5073586;28;19936;-70
2022/05/16 07:04:36;;;;;;;;;;;16.80;94.70;;;;;;5073515;28;19912;-71
2022/05/16 07:07:04;;;;;;;;;;;16.80;94.70;;;;;;5073346;28;19912;-71
2022/05/16 07:09:30;;;;;;;;;;;16.50;94.80;;;;;;5073194;28;20026;-70
2022/05/16 07:11:55;;;;;;;;;;;16.50;94.90;;;;;;5073037;28;19924;-70
2022/05/16 07:14:21;;;;;;;;;;;16.70;95.10;;;;;;5072916;28;19912;-70
2022/05/16 07:16:46;;;;;;;;;;;17.00;94.90;;;;;;5073310;28;19982;-71
2022/05/16 07:19:12;;;;;;;;;;;17.40;94.90;;;;;;5072864;28;19923;-70
2022/05/16 07:21:38;;;;;;;;;;;17.70;94.00;;;;;;5072729;28;19929;-71
2022/05/16 07:24:04;;;;;;;;;;;17.50;93.80;;;;;;5072831;28;20028;-71
2022/05/16 07:29:13;;;;;;;;;;;17.50;94.20;;;;;;5073131;28;20374;-70
2022/05/16 07:31:39;;;;;;;;;;;17.50;94.60;;;;;;5072487;28;20015;-69
2022/05/16 07:34:04;;;;;;;;;;;17.40;93.60;;;;;;5072648;28;20003;-69
2022/05/16 07:36:30;;;;;;;;;;;17.20;94.00;;;;;;5072519;28;20410;-70
2022/05/16 07:38:55;;;;;;;;;;;17.20;94.30;;;;;;5072609;28;20019;-70
2022/05/16 07:41:21;;;;;;;;;;;17.40;94.10;;;;;;5072384;28;19962;-70
2022/05/16 07:43:46;;;;;;;;;;;17.60;93.10;;;;;;5087482;28;19912;-70
2022/05/16 07:46:12;;;;;;;;;;;17.60;93.10;;;;;;5072226;28;19917;-70
2022/05/16 07:48:38;;;;;;;;;;;17.80;92.80;;;;;;5072013;28;20364;-70
2022/05/16 07:51:03;;;;;;;;;;;17.80;93.40;;;;;;5072340;28;20283;-70
2022/05/16 07:53:29;;;;;;;;;;;17.80;93.00;;;;;;5072051;28;19912;-70
2022/05/16 07:55:56;;;;;;;;;;;17.90;93.50;;;;;;5072205;28;19974;-71
2022/05/16 07:58:22;;;;;;;;;;;18.20;93.30;;;;;;5072273;28;20347;-70
2022/05/16 08:00:50;;;;;;;;;;;18.40;91.80;;;;;;5072221;28;19951;-70
2022/05/16 08:03:18;;;;;;;;;;;18.10;91.40;;;;;;5071546;28;20375;-71
2022/05/16 08:05:44;;;;;;;;;;;18.30;92.20;;;;;;5071881;28;20384;-70
2022/05/16 08:10:55;;;;;;;;;;;18.50;91.60;;;;;;5072631;28;20418;-71
2022/05/16 08:13:20;;;;;;;;;;;18.10;91.40;;;;;;5071642;28;19960;-71
2022/05/16 08:15:46;;;;;;;;;;;17.80;91.60;;;;;;5072022;28;19970;-71
2022/05/16 08:18:12;;;;;;;;;;;17.50;91.80;;;;;;5071839;28;19909;-71
2022/05/16 08:20:39;;;;;;;;;;;16.30;92.50;;;;;;5071670;28;19955;-70
2022/05/16 08:23:04;;;;;;;;;;;17.10;93.00;;;;;;5071675;28;20261;-71
2022/05/16 08:25:30;;;;;;;;;;;17.20;92.60;;;;;;5071602;28;19912;-71
2022/05/16 08:27:56;;;;;;;;;;;17.80;92.40;;;;;;5087399;28;20311;-70
2022/05/16 08:30:22;;;;;;;;;;;18.40;90.50;;;;;;5072106;28;19919;-70
2022/05/16 08:32:48;;;;;;;;;;;18.80;90.10;;;;;;5071835;28;19962;-70
2022/05/16 08:35:14;;;;;;;;;;;19.00;89.30;;;;;;5071891;28;19917;-70
2022/05/16 08:40:30;;;;;;;;;;;18.80;89.70;;;;;;5072398;28;19931;-69
2022/05/16 08:43:21;;;;;;;;;;;18.10;89.70;;;;;;5071837;28;20355;-70
2022/05/16 08:45:56;;;;;;;;;;;17.90;89.10;;;;;;5068575;28;19960;-70
2022/05/16 08:48:29;;;;;;;;;;;18.20;88.50;;;;;;5071629;28;19913;-70
2022/05/16 08:50:59;;;;;;;;;;;18.60;86.30;;;;;;5071444;28;19936;-71
2022/05/16 08:53:27;;;;;;;;;;;18.80;86.80;;;;;;5071249;28;19939;-71
2022/05/16 08:55:58;;;;;;;;;;;18.80;85.30;;;;;;5071380;28;20014;-71
2022/05/16 08:58:28;;;;;;;;;;;18.60;86.80;;;;;;5071193;28;20416;-71
2022/05/16 09:00:56;;;;;;;;;;;18.30;87.30;;;;;;5071318;28;19912;-71
2022/05/16 09:03:28;;;;;;;;;;;18.20;87.00;;;;;;5071391;28;19917;-72
2022/05/16 09:06:03;;;;;;;;;;;18.80;88.00;;;;;;5086864;28;20372;-71
2022/05/16 09:08:31;;;;;;;;;;;19.40;88.10;;;;;;5070993;28;19995;-71
2022/05/16 09:10:57;;;;;;;;;;;19.50;82.20;;;;;;5071389;28;19916;-71
2022/05/16 09:13:25;;;;;;;;;;;19.60;82.00;;;;;;5071023;28;20411;-71
2022/05/16 09:16:12;;;;;;;;;;;19.40;82.00;;;;;;5072845;28;20368;-71
2022/05/16 09:18:44;;;;;;;;;;;18.90;83.70;;;;;;5075323;28;19916;-71
2022/05/16 09:21:12;;;;;;;;;;;18.40;82.90;;;;;;5075324;28;19932;-71
2022/05/16 09:23:40;;;;;;;;;;;18.60;81.90;;;;;;5075139;28;19916;-71
2022/05/16 09:26:06;;;;;;;;;;;18.70;79.80;;;;;;5073878;28;19934;-71
2022/05/16 09:28:34;;;;;;;;;;;18.80;80.40;;;;;;5075194;28;19916;-71
2022/05/16 09:31:22;;;;;;;;;;;18.70;82.20;;;;;;5075513;28;19975;-70
2022/05/16 09:33:49;;;;;;;;;;;18.70;82.10;;;;;;5090794;28;19931;-70
2022/05/16 09:36:18;;;;;;;;;;;18.50;80.60;;;;;;5090688;28;19960;-70
2022/05/16 09:38:44;;;;;;;;;;;18.20;80.90;;;;;;5075168;28;19916;-71
2022/05/16 09:41:09;;;;;;;;;;;18.20;80.30;;;;;;5074808;28;19919;-71
2022/05/16 09:43:42;;;;;;;;;;;18.10;80.50;;;;;;5074907;28;19913;-71
2022/05/16 09:46:27;;;;;;;;;;;18.30;81.30;;;;;;5074695;28;19912;-71
2022/05/16 09:49:15;;;;;;;;;;;18.50;81.40;;;;;;5074955;28;20435;-71
2022/05/16 09:51:49;;;;;;;;;;;18.40;80.40;;;;;;5066729;28;20112;-71
2022/05/16 09:54:18;;;;;;;;;;;18.10;80.90;;;;;;5074659;28;19920;-71
2022/05/16 09:57:13;;;;;;;;;;;18.10;81.30;;;;;;5074800;28;19913;-71
2022/05/16 09:59:42;;;;;;;;;;;18.10;81.00;;;;;;5061328;28;19913;-71
2022/05/16 10:02:21;;;;;;;;;;;18.60;80.50;;;;;;5074697;28;20276;-71
2022/05/16 10:04:52;;;;;;;;;;;18.80;79.90;;;;;;5074408;28;19948;-71
2022/05/16 10:07:21;;;;;;;;;;;19.00;78.60;;;;;;5074863;28;19920;-71
2022/05/16 10:09:50;;;;;;;;;;;18.90;77.60;;;;;;5074471;28;20384;-71
2022/05/16 10:12:17;;;;;;;;;;;18.90;78.20;;;;;;5074397;28;19916;-71
2022/05/16 10:14:42;;;;;;;;;;;19.10;77.00;;;;;;5074514;28;20375;-71
2022/05/16 10:17:10;;;;;;;;;;;19.00;76.50;;;;;;5074327;28;19973;-70
2022/05/16 10:19:38;;;;;;;;;;;18.70;77.90;;;;;;5074374;28;20357;-71
2022/05/16 10:22:11;;;;;;;;;;;18.50;79.00;;;;;;5074264;28;20444;-71
2022/05/16 10:24:45;;;;;;;;;;;18.40;78.20;;;;;;5073857;28;20371;-70
2022/05/16 10:27:12;;;;;;;;;;;18.40;78.20;;;;;;5073473;28;19924;-72
2022/05/16 10:29:42;;;;;;;;;;;18.40;78.70;;;;;;5089361;28;19926;-71
2022/05/16 10:35:07;;;;;;;;;;;18.50;78.80;;;;;;5074365;28;19918;-71
2022/05/16 10:37:35;;;;;;;;;;;18.30;79.10;;;;;;5073890;28;19913;-71
2022/05/16 10:40:08;;;;;;;;;;;18.30;79.30;;;;;;5074032;28;19920;-70
2022/05/16 10:42:47;;;;;;;;;;;18.20;79.70;;;;;;5073791;28;20383;-70
2022/05/16 10:45:17;;;;;;;;;;;18.10;79.50;;;;;;5073917;28;19935;-70
2022/05/16 10:47:50;;;;;;;;;;;18.20;78.90;;;;;;5073331;28;19913;-71
2022/05/16 10:50:18;;;;;;;;;;;18.30;78.40;;;;;;5073776;28;19912;-72
2022/05/16 10:52:43;;;;;;;;;;;18.80;79.20;;;;;;5073581;28;20007;-70
2022/05/16 10:55:09;;;;;;;;;;;19.60;77.20;;;;;;5073285;28;20054;-71
2022/05/16 10:57:53;;;;;;;;;;;20.50;75.70;;;;;;5073414;28;19916;-71
2022/05/16 11:00:20;;;;;;;;;;;21.20;74.30;;;;;;5073722;28;19964;-71
2022/05/16 11:02:46;;;;;;;;;;;21.30;72.70;;;;;;5088938;28;19959;-71
2022/05/16 11:05:19;;;;;;;;;;;21.50;73.30;;;;;;5073519;28;19959;-71
2022/05/16 11:07:45;;;;;;;;;;;21.90;73.10;;;;;;5073370;28;19920;-71
2022/05/16 11:10:16;;;;;;;;;;;22.40;72.00;;;;;;5071873;28;20360;-71
2022/05/16 11:13:00;;;;;;;;;;;22.30;70.70;;;;;;5073642;28;19997;-71
2022/05/16 11:15:26;;;;;;;;;;;21.60;72.10;;;;;;5072651;28;19916;-71
2022/05/16 11:17:51;;;;;;;;;;;20.80;71.30;;;;;;5073081;28;20269;-70
2022/05/16 11:20:19;;;;;;;;;;;20.30;71.40;;;;;;5072960;28;19912;-70
2022/05/16 11:22:52;;;;;;;;;;;20.10;71.70;;;;;;5072968;28;19919;-71
2022/05/16 11:25:31;;;;;;;;;;;19.90;72.40;;;;;;5072725;28;20276;-71
2022/05/16 11:28:26;;;;;;;;;;;20.40;72.20;;;;;;5072864;28;19912;-72
2022/05/16 11:30:54;;;;;;;;;;;20.70;70.40;;;;;;5059405;28;20030;-71
2022/05/16 11:33:44;;;;;;;;;;;21.30;69.50;;;;;;5072949;28;20604;-70
2022/05/16 11:36:25;;;;;;;;;;;21.70;68.20;;;;;;5065133;28;19925;-70
2022/05/16 11:39:01;;;;;;;;;;;21.80;66.70;;;;;;5071852;28;19912;-71
2022/05/16 11:41:36;;;;;;;;;;;21.70;66.80;;;;;;5072509;28;19912;-70
2022/05/16 11:44:10;;;;;;;;;;;21.60;67.00;;;;;;5072358;28;19912;-70
2022/05/16 11:46:43;;;;;;;;;;;21.90;67.50;;;;;;5072368;28;19920;-71
2022/05/16 11:49:18;;;;;;;;;;;22.30;67.80;;;;;;5072281;28;19958;-71
2022/05/16 11:51:52;;;;;;;;;;;22.50;67.90;;;;;;5072476;28;20243;-71
2022/05/16 11:54:22;;;;;;;;;;;22.10;67.10;;;;;;5072188;28;19918;-71
2022/05/16 12:02:34;;;;;;;;;;;20.90;70.80;;;;;;5072489;28;19947;-71
2022/05/16 12:05:07;;;;;;;;;;;20.70;71.30;;;;;;5072536;28;19916;-71
2022/05/16 12:07:35;;;;;;;;;;;20.80;72.30;;;;;;5072411;28;19913;-71
2022/05/16 12:10:10;;;;;;;;;;;20.80;71.00;;;;;;5072424;28;19963;-71
2022/05/16 12:12:42;;;;;;;;;;;20.30;71.20;;;;;;5072238;28;19963;-71
2022/05/16 12:15:18;;;;;;;;;;;20.30;71.60;;;;;;5072085;28;20348;-71
2022/05/16 12:17:50;;;;;;;;;;;20.50;71.30;;;;;;5087487;28;20376;-71
2022/05/16 12:20:15;;;;;;;;;;;20.40;70.80;;;;;;5071851;28;19912;-71
2022/05/16 12:22:43;;;;;;;;;;;20.10;71.50;;;;;;5071744;28;20323;-71
2022/05/16 12:25:12;;;;;;;;;;;20.00;72.00;;;;;;5071915;28;19912;-71
2022/05/16 12:27:40;;;;;;;;;;;20.10;71.60;;;;;;5087252;28;19920;-71
2022/05/16 12:30:09;;;;;;;;;;;20.60;71.10;;;;;;5071624;28;20359;-71
2022/05/16 12:32:34;;;;;;;;;;;20.90;71.00;;;;;;5087182;28;19921;-71
2022/05/16 12:35:02;;;;;;;;;;;21.00;70.10;;;;;;5071762;28;19919;-71
2022/05/16 12:37:28;;;;;;;;;;;20.90;69.70;;;;;;5071765;28;19928;-71
2022/05/16 12:39:56;;;;;;;;;;;20.80;70.30;;;;;;5071807;28;19912;-71
2022/05/16 12:42:27;;;;;;;;;;;20.90;70.00;;;;;;5071852;28;19912;-70
2022/05/16 12:44:54;;;;;;;;;;;21.10;68.60;;;;;;5071828;28;20383;-71
2022/05/16 12:47:20;;;;;;;;;;;21.00;67.50;;;;;;5072242;28;19948;-71
2022/05/16 12:50:04;;;;;;;;;;;21.00;68.60;;;;;;5071692;28;19975;-72
2022/05/16 12:52:44;;;;;;;;;;;21.00;68.30;;;;;;5071508;28;19916;-71
2022/05/16 12:55:19;;;;;;;;;;;20.70;69.00;;;;;;5071579;28;20356;-71
2022/05/16 12:57:51;;;;;;;;;;;20.50;69.70;;;;;;5070171;28;20426;-70
2022/05/16 13:00:19;;;;;;;;;;;20.30;69.70;;;;;;5071463;28;19916;-71
2022/05/16 13:02:54;;;;;;;;;;;20.10;69.70;;;;;;5071366;28;19917;-71
2022/05/16 13:05:39;;;;;;;;;;;20.00;67.80;;;;;;5070990;28;20273;-71
2022/05/16 13:08:14;;;;;;;;;;;19.70;68.20;;;;;;5071269;28;19917;-71
2022/05/16 13:10:56;;;;;;;;;;;19.50;69.50;;;;;;5071157;28;19916;-71
2022/05/16 13:13:24;;;;;;;;;;;19.40;70.00;;;;;;5071284;28;19916;-70
2022/05/16 13:15:50;;;;;;;;;;;19.60;69.90;;;;;;5071224;28;19916;-71
2022/05/16 13:18:22;;;;;;;;;;;19.80;71.40;;;;;;5071311;28;19909;-71
2022/05/16 13:20:50;;;;;;;;;;;19.70;70.60;;;;;;5071014;28;19924;-70
2022/05/16 13:23:15;;;;;;;;;;;19.50;71.10;;;;;;5071110;28;19999;-70
2022/05/16 13:31:09;;;;;;;;;;;19.20;72.10;;;;;;5071181;28;19919;-71
2022/05/16 13:33:36;;;;;;;;;;;19.20;72.30;;;;;;5070761;28;19932;-71
2022/05/16 13:36:13;;;;;;;;;;;19.20;72.80;;;;;;5071031;28;19920;-71
2022/05/16 13:38:38;;;;;;;;;;;19.20;72.00;;;;;;5070926;28;19968;-72
2022/05/16 13:41:04;;;;;;;;;;;19.20;73.20;;;;;;5071353;28;19928;-71
2022/05/16 13:43:30;;;;;;;;;;;19.30;71.80;;;;;;5071066;28;19995;-71
2022/05/16 13:46:00;;;;;;;;;;;19.30;71.70;;;;;;5071183;28;19916;-71
2022/05/16 13:48:25;;;;;;;;;;;19.20;72.80;;;;;;5071266;28;19962;-71
2022/05/16 13:50:52;;;;;;;;;;;19.20;73.00;;;;;;5070932;28;20412;-71
2022/05/16 13:53:19;;;;;;;;;;;19.30;72.30;;;;;;5070608;28;19912;-71
2022/05/16 13:55:45;;;;;;;;;;;19.20;72.80;;;;;;5070944;28;19951;-71
2022/05/16 13:58:13;;;;;;;;;;;19.10;72.60;;;;;;5070905;28;19909;-71
2022/05/16 14:00:40;;;;;;;;;;;19.20;71.70;;;;;;5070650;28;19959;-71
2022/05/16 14:03:20;;;;;;;;;;;19.20;72.30;;;;;;5074070;28;19909;-71
2022/05/16 14:05:46;;;;;;;;;;;19.20;72.60;;;;;;5074158;28;19958;-71
2022/05/16 14:08:20;;;;;;;;;;;19.20;71.90;;;;;;5074280;28;19912;-71
2022/05/16 14:10:46;;;;;;;;;;;19.10;71.50;;;;;;5074184;28;19919;-71
2022/05/16 14:13:15;;;;;;;;;;;19.00;72.50;;;;;;5074093;28;19912;-71
2022/05/16 14:15:46;;;;;;;;;;;18.90;73.60;;;;;;5074293;28;19919;-71
2022/05/16 14:18:11;;;;;;;;;;;18.90;73.40;;;;;;5074117;28;19923;-71
2022/05/16 14:20:38;;;;;;;;;;;18.90;74.40;;;;;;5073938;28;19921;-71
2022/05/16 14:23:12;;;;;;;;;;;18.90;74.10;;;;;;5074263;28;20189;-71
2022/05/16 14:25:40;;;;;;;;;;;18.80;74.30;;;;;;5073915;28;19934;-71
2022/05/16 14:28:15;;;;;;;;;;;18.80;74.30;;;;;;5073990;28;19919;-71
2022/05/16 14:30:48;;;;;;;;;;;18.70;74.60;;;;;;5073722;28;20276;-71
2022/05/16 14:33:14;;;;;;;;;;;18.70;74.90;;;;;;5073836;28;20418;-71
2022/05/16 14:35:40;;;;;;;;;;;18.70;74.40;;;;;;5074022;28;19961;-70
2022/05/16 14:38:10;;;;;;;;;;;18.70;74.70;;;;;;5073748;28;19908;-71
2022/05/16 14:40:38;;;;;;;;;;;18.80;74.60;;;;;;5073584;28;20261;-70
2022/05/16 14:43:06;;;;;;;;;;;18.80;75.30;;;;;;5074022;28;19909;-70
2022/05/16 14:48:26;;;;;;;;;;;18.70;74.10;;;;;;5073530;28;19919;-71
2022/05/16 14:50:51;;;;;;;;;;;18.50;74.60;;;;;;5073864;28;20268;-71
2022/05/16 14:53:18;;;;;;;;;;;18.50;74.60;;;;;;5073269;28;19916;-70
2022/05/16 14:55:45;;;;;;;;;;;18.40;75.10;;;;;;5073547;28;19926;-71
2022/05/16 14:58:11;;;;;;;;;;;18.40;75.50;;;;;;5073451;28;19931;-71